Time;durP1;ratioP1;P1;durP2;ratioP2;P2;SDS_P1;SDS_P2;PMS_P1;PMS_P2;Temp;Humidity;BMP_temperature;BMP_pressure;BME280_temperature;BME280_humidity;BME280_pressure;Samples;Min_cycle;Max_cycle;Signal;HPM_P1;HPM_P2
2022/10/06 00:07:00;;;;;;;9.45;3.08;;;21.70;50.40;;;;;;21078298;28;20044;-58
2022/10/06 00:17:01;;;;;;;12.63;3.90;;;21.60;50.20;;;;;;21093308;28;20047;-58
2022/10/06 00:27:03;;;;;;;12.27;3.67;;;21.50;50.60;;;;;;21094672;28;20052;-58
2022/10/06 00:37:05;;;;;;;9.60;4.55;;;21.40;50.90;;;;;;21093140;28;20388;-58
2022/10/06 00:47:06;;;;;;;15.20;4.28;;;21.30;51.20;;;;;;21092300;28;20561;-58
2022/10/06 00:57:09;;;;;;;13.55;4.88;;;21.20;51.50;;;;;;21073667;28;20048;-58
2022/10/06 01:07:11;;;;;;;13.10;4.63;;;21.20;52.00;;;;;;21090579;28;20044;-58
2022/10/06 01:17:20;;;;;;;16.27;5.13;;;20.90;52.40;;;;;;21071450;28;20423;-57
2022/10/06 01:27:26;;;;;;;18.08;5.70;;;20.40;52.00;;;;;;21089758;28;20613;-58
2022/10/06 01:37:31;;;;;;;21.63;6.13;;;20.00;52.80;;;;;;21088211;28;20082;-59
2022/10/06 01:47:35;;;;;;;16.35;5.35;;;20.00;53.30;;;;;;21087725;28;20062;-59
2022/10/06 01:57:40;;;;;;;12.80;3.80;;;19.90;53.60;;;;;;21087163;28;20185;-61
2022/10/06 02:07:42;;;;;;;11.98;4.07;;;20.10;56.00;;;;;;21086363;28;20089;-59
2022/10/06 02:17:47;;;;;;;6.70;3.57;;;20.20;57.30;;;;;;21085383;28;20047;-58
2022/10/06 02:27:50;;;;;;;7.30;2.97;;;20.20;59.00;;;;;;21067697;28;20051;-58
2022/10/06 02:37:54;;;;;;;8.50;3.05;;;20.20;61.10;;;;;;21082381;28;20052;-58
2022/10/06 02:47:56;;;;;;;8.20;3.50;;;20.20;63.60;;;;;;21082626;28;20522;-57
2022/10/06 02:57:59;;;;;;;10.13;3.30;;;20.10;64.70;;;;;;21081993;28;20048;-58
2022/10/06 03:08:00;;;;;;;7.38;3.20;;;20.20;64.50;;;;;;21081696;28;20407;-58
2022/10/06 03:18:03;;;;;;;8.23;3.25;;;20.20;64.40;;;;;;21080835;28;20480;-58
2022/10/06 03:28:05;;;;;;;7.63;3.28;;;20.00;64.50;;;;;;21061960;28;20484;-58
2022/10/06 03:38:08;;;;;;;7.80;3.10;;;20.00;64.40;;;;;;21079134;28;20055;-58
2022/10/06 03:48:10;;;;;;;11.63;4.07;;;20.10;64.10;;;;;;21078955;28;20114;-58
2022/10/06 03:58:18;;;;;;;9.00;4.10;;;20.10;64.30;;;;;;21079000;28;20045;-58
2022/10/06 04:08:22;;;;;;;8.30;3.72;;;20.10;64.30;;;;;;21078537;28;20079;-59
2022/10/06 04:18:24;;;;;;;14.55;3.60;;;20.10;64.60;;;;;;21078295;28;20052;-58
2022/10/06 04:28:28;;;;;;;11.80;3.50;;;20.10;62.70;;;;;;21077955;28;20092;-58
2022/10/06 04:38:33;;;;;;;12.45;4.03;;;20.00;59.70;;;;;;21058853;28;20308;-59
2022/10/06 04:48:37;;;;;;;17.70;3.90;;;19.90;56.70;;;;;;21058666;28;20138;-58
2022/10/06 04:58:42;;;;;;;18.52;4.32;;;19.70;52.40;;;;;;21082022;28;20132;-58
2022/10/06 05:08:49;;;;;;;14.43;4.03;;;19.70;53.20;;;;;;21072183;28;20377;-58
2022/10/06 05:18:52;;;;;;;17.92;4.85;;;19.60;53.90;;;;;;21089968;28;20047;-58
2022/10/06 05:28:55;;;;;;;12.17;3.83;;;19.50;58.30;;;;;;21089648;28;20083;-58
2022/10/06 05:38:58;;;;;;;21.65;5.68;;;19.00;59.90;;;;;;21087955;28;20044;-59
2022/10/06 05:49:06;;;;;;;17.63;5.10;;;18.80;60.30;;;;;;21002626;28;20510;-58
2022/10/06 05:59:07;;;;;;;10.85;5.30;;;18.70;60.80;;;;;;21004444;28;20051;-58
2022/10/06 06:09:09;;;;;;;18.48;5.90;;;18.50;61.20;;;;;;21003220;28;20128;-59
2022/10/06 06:19:12;;;;;;;15.57;4.63;;;18.40;61.10;;;;;;21002705;28;20121;-59
2022/10/06 06:29:12;;;;;;;15.18;5.00;;;18.40;60.90;;;;;;21000563;28;20041;-58
2022/10/06 06:39:14;;;;;;;18.52;5.03;;;18.60;59.30;;;;;;20983157;28;20053;-59
2022/10/06 06:49:17;;;;;;;20.02;4.03;;;19.60;54.60;;;;;;21065316;28;20490;-60
2022/10/06 06:59:19;;;;;;;15.57;4.20;;;20.40;51.00;;;;;;21081022;28;20052;-59
2022/10/06 07:09:20;;;;;;;21.08;4.63;;;20.70;49.30;;;;;;21080820;28;20110;-63
2022/10/06 07:29:40;;;;;;;10.38;3.80;;;21.20;48.60;;;;;;21035561;28;20106;-58
2022/10/06 07:39:43;;;;;;;18.67;4.55;;;20.70;50.50;;;;;;21029099;28;20044;-57
2022/10/06 07:49:46;;;;;;;14.90;5.03;;;21.20;49.30;;;;;;21036966;28;20056;-58
2022/10/06 07:59:46;;;;;;;14.40;4.30;;;21.30;49.40;;;;;;21014009;28;20056;-57
2022/10/06 08:09:48;;;;;;;13.63;3.75;;;21.30;49.30;;;;;;21080181;28;20056;-57
2022/10/06 08:19:50;;;;;;;12.32;4.03;;;21.20;49.70;;;;;;21069322;28;20500;-58
2022/10/06 08:29:53;;;;;;;14.43;3.72;;;21.50;49.10;;;;;;21053513;28;20056;-59
2022/10/06 08:39:55;;;;;;;12.77;3.80;;;21.70;48.80;;;;;;21061348;28;20131;-60
2022/10/06 08:49:57;;;;;;;12.27;3.65;;;21.70;48.80;;;;;;21092793;28;20056;-59
2022/10/06 08:59:59;;;;;;;18.30;4.60;;;21.70;49.20;;;;;;21091805;28;20131;-58
2022/10/06 09:10:00;;;;;;;15.63;4.38;;;21.60;49.60;;;;;;21090568;28;20043;-56
2022/10/06 09:20:28;;;;;;;7.93;4.00;;;21.20;51.30;;;;;;21090200;28;20484;-57
2022/10/06 09:30:31;;;;;;;12.93;3.67;;;21.20;52.80;;;;;;21089618;28;20097;-58
2022/10/06 09:40:50;;;;;;;9.48;3.20;;;21.30;53.20;;;;;;21088334;28;20345;-57
2022/10/06 09:51:17;;;;;;;8.55;3.05;;;21.40;53.60;;;;;;21087700;28;20492;-57
2022/10/06 10:01:25;;;;;;;6.40;3.38;;;21.50;54.70;;;;;;21087446;28;20511;-59
2022/10/06 10:21:47;;;;;;;9.68;3.75;;;21.80;55.30;;;;;;21084439;28;20040;-58
2022/10/06 10:32:10;;;;;;;7.30;3.67;;;22.00;54.90;;;;;;21083658;28;20176;-58
2022/10/06 10:42:25;;;;;;;9.18;3.70;;;22.20;53.50;;;;;;21057106;28;20080;-59
2022/10/06 10:52:33;;;;;;;11.52;3.70;;;22.40;52.20;;;;;;20997911;28;20048;-56
2022/10/06 11:02:37;;;;;;;11.60;3.92;;;22.50;51.80;;;;;;20997922;28;20056;-56
2022/10/06 11:13:08;;;;;;;8.98;3.80;;;22.60;51.20;;;;;;20996818;28;20080;-58
2022/10/06 11:23:39;;;;;;;7.85;3.40;;;22.70;50.90;;;;;;20997249;28;20044;-59
2022/10/06 11:33:48;;;;;;;11.30;4.70;;;23.10;50.00;;;;;;20996408;28;20503;-58
2022/10/06 11:44:08;;;;;;;8.30;3.45;;;23.30;49.40;;;;;;20995022;28;20059;-57
2022/10/06 11:54:49;;;;;;;8.10;3.35;;;23.50;48.00;;;;;;20994722;28;20048;-59
2022/10/06 12:05:09;;;;;;;5.53;3.28;;;23.70;46.80;;;;;;20995972;28;20052;-58
2022/10/06 12:15:21;;;;;;;12.20;4.45;;;23.90;46.10;;;;;;21012625;28;20554;-59
2022/10/06 12:25:26;;;;;;;6.50;3.03;;;24.10;45.80;;;;;;21011062;28;20046;-59
2022/10/06 12:35:38;;;;;;;10.43;3.33;;;24.10;45.60;;;;;;21010703;28;20052;-58
2022/10/06 12:46:04;;;;;;;8.25;3.20;;;24.30;44.10;;;;;;21008712;28;20143;-57
2022/10/06 12:56:22;;;;;;;9.70;3.10;;;24.40;44.40;;;;;;21007935;28;20094;-60
2022/10/06 13:06:24;;;;;;;5.85;3.25;;;24.60;43.30;;;;;;21007179;28;20056;-60
2022/10/06 13:16:31;;;;;;;7.15;2.85;;;24.60;43.90;;;;;;21005995;28;20071;-59
2022/10/06 13:26:34;;;;;;;7.63;3.53;;;24.70;43.50;;;;;;21007006;28;20396;-59
2022/10/06 13:36:39;;;;;;;4.72;2.58;;;24.90;43.10;;;;;;21005886;28;20049;-57
2022/10/06 13:46:50;;;;;;;7.80;3.40;;;25.00;42.70;;;;;;21004240;28;20051;-57
2022/10/06 13:56:52;;;;;;;6.43;2.92;;;25.10;42.20;;;;;;21003122;28;20110;-60
2022/10/06 14:06:57;;;;;;;7.10;3.40;;;25.20;40.90;;;;;;21002301;28;20048;-58
2022/10/06 14:16:59;;;;;;;7.75;2.58;;;25.10;40.50;;;;;;20983707;28;20060;-58
2022/10/06 14:27:03;;;;;;;7.38;3.15;;;25.20;40.40;;;;;;21001656;28;20052;-58
2022/10/06 14:37:05;;;;;;;6.97;3.28;;;25.20;40.20;;;;;;20999487;28;20060;-59
2022/10/06 14:47:08;;;;;;;6.53;2.70;;;25.20;39.60;;;;;;20999778;28;20114;-59
2022/10/06 14:57:10;;;;;;;8.82;2.35;;;25.30;39.70;;;;;;20998316;28;20123;-59
2022/10/06 15:17:32;;;;;;;6.85;3.17;;;25.30;37.80;;;;;;20996671;28;20051;-58
2022/10/06 15:37:54;;;;;;;6.85;2.55;;;25.40;37.10;;;;;;20995452;28;20131;-58
2022/10/06 15:47:56;;;;;;;9.85;2.65;;;25.40;36.60;;;;;;20994939;28;20551;-57
2022/10/06 15:57:58;;;;;;;8.37;2.80;;;25.40;36.70;;;;;;20995364;28;20420;-58
2022/10/06 16:07:59;;;;;;;9.67;2.37;;;25.30;36.50;;;;;;20994701;28;20082;-57
2022/10/06 16:18:01;;;;;;;8.70;1.80;;;25.30;33.00;;;;;;20994597;28;20048;-59
2022/10/06 16:28:03;;;;;;;9.38;2.97;;;25.30;32.60;;;;;;20993600;28;20137;-56
2022/10/06 16:38:05;;;;;;;6.40;2.30;;;25.20;33.70;;;;;;20993635;28;20366;-58
2022/10/06 16:48:06;;;;;;;10.87;3.00;;;25.10;34.20;;;;;;20992236;28;20060;-59
2022/10/06 16:58:09;;;;;;;8.03;2.67;;;25.00;34.60;;;;;;20987226;28;20392;-58
2022/10/06 17:08:10;;;;;;;7.65;2.55;;;24.90;35.30;;;;;;21007816;28;20155;-58
2022/10/06 17:18:12;;;;;;;6.93;2.85;;;24.90;35.70;;;;;;21005917;28;20052;-58
2022/10/06 17:28:14;;;;;;;;;;;24.80;36.10;;;;;;21005508;28;20496;-57
2022/10/06 17:38:17;;;;;;;10.68;4.78;;;24.70;36.30;;;;;;21003941;28;19956;-57
2022/10/06 17:48:25;;;;;;;7.83;4.20;;;24.60;36.90;;;;;;21003641;28;20048;-58
2022/10/06 17:58:28;;;;;;;8.43;3.40;;;24.40;37.40;;;;;;21003931;28;20175;-58
2022/10/06 18:08:31;;;;;;;15.60;5.28;;;24.20;37.60;;;;;;21001630;28;20045;-58
2022/10/06 18:18:33;;;;;;;12.48;5.47;;;23.90;38.50;;;;;;21001758;28;20049;-58
2022/10/06 18:28:37;;;;;;;12.45;6.38;;;23.90;38.70;;;;;;21000898;28;20052;-57
2022/10/06 18:38:42;;;;;;;44.33;28.23;;;23.60;39.30;;;;;;20982051;28;20413;-59
2022/10/06 18:48:57;;;;;;;20.45;8.57;;;23.50;39.60;;;;;;20998903;28;20141;-58
2022/10/06 18:59:02;;;;;;;16.90;8.07;;;23.40;40.20;;;;;;20998809;28;20082;-56
2022/10/06 19:09:05;;;;;;;13.63;7.90;;;23.40;40.50;;;;;;20997334;28;20076;-58
2022/10/06 19:19:09;;;;;;;12.88;8.00;;;23.30;40.70;;;;;;20996316;28;20044;-58
2022/10/06 19:29:12;;;;;;;16.55;8.30;;;23.20;41.20;;;;;;20996130;28;20055;-59
2022/10/06 19:39:14;;;;;;;;;;;23.20;41.30;;;;;;20996939;28;20059;-58
2022/10/06 19:49:16;;;;;;;17.63;7.50;;;23.00;41.60;;;;;;20994565;28;19928;-59
2022/10/06 19:59:20;;;;;;;19.60;8.23;;;22.90;41.80;;;;;;20995916;28;20382;-59
2022/10/06 20:09:22;;;;;;;23.02;11.75;;;22.90;41.90;;;;;;20994690;28;20052;-62
2022/10/06 20:19:26;;;;;;;21.88;11.07;;;22.80;42.20;;;;;;20994217;28;20047;-59
2022/10/06 20:29:30;;;;;;;21.33;6.97;;;22.70;42.70;;;;;;21001444;28;20095;-58
2022/10/06 20:49:53;;;;;;;9.88;3.42;;;22.30;41.80;;;;;;21008088;28;20113;-59
2022/10/06 20:59:55;;;;;;;8.43;3.33;;;22.20;42.70;;;;;;21008063;28;20156;-58
2022/10/06 21:09:56;;;;;;;12.50;3.70;;;22.20;43.50;;;;;;21008584;28;20052;-58
2022/10/06 21:19:57;;;;;;;10.52;5.07;;;22.10;43.70;;;;;;21006659;28;20048;-58
2022/10/06 21:29:59;;;;;;;10.48;4.63;;;22.00;44.50;;;;;;21006860;28;20048;-58
2022/10/06 21:40:00;;;;;;;9.82;3.78;;;21.80;44.80;;;;;;21004166;28;20053;-58
2022/10/06 21:50:02;;;;;;;8.77;3.55;;;21.60;46.20;;;;;;21004109;28;20056;-58
2022/10/06 22:00:04;;;;;;;8.55;2.60;;;21.50;47.70;;;;;;21003774;28;20049;-59
2022/10/06 22:10:07;;;;;;;7.28;2.05;;;21.40;48.50;;;;;;21003175;28;20099;-59
2022/10/06 22:20:08;;;;;;;4.93;2.15;;;21.40;50.30;;;;;;21002659;28;20062;-58
2022/10/06 22:30:10;;;;;;;10.07;2.00;;;21.20;51.90;;;;;;21000712;28;20080;-57
2022/10/06 22:40:12;;;;;;;5.90;1.90;;;21.10;52.40;;;;;;21000073;28;20052;-58
2022/10/06 22:50:14;;;;;;;5.40;1.73;;;21.00;52.50;;;;;;20997973;28;20369;-57
2022/10/06 23:00:15;;;;;;;10.18;2.42;;;20.90;53.30;;;;;;20999168;28;20056;-60
2022/10/06 23:10:20;;;;;;;5.38;1.58;;;20.90;54.50;;;;;;20997284;28;20056;-57
2022/10/06 23:20:21;;;;;;;5.47;1.67;;;20.70;55.60;;;;;;20999223;28;20083;-57
2022/10/06 23:30:23;;;;;;;4.40;1.70;;;20.40;56.20;;;;;;20996183;28;20489;-58
2022/10/06 23:40:25;;;;;;;4.28;1.65;;;20.50;56.30;;;;;;20996242;28;20040;-57
2022/10/06 23:50:26;;;;;;;5.35;1.75;;;20.30;56.70;;;;;;20995411;28;20398;-59
